createdAt,value
2023-02-22T00:01:09.014Z,28.73
2023-02-22T00:03:54.904Z,28.10
2023-02-22T00:06:43.110Z,32.40
2023-02-22T00:09:30.392Z,27.52
2023-02-22T00:12:16.229Z,28.20
2023-02-22T00:15:01.939Z,29.45
2023-02-22T00:17:49.364Z,30.70
2023-02-22T00:20:35.111Z,27.50
2023-02-22T00:23:22.681Z,28.98
2023-02-22T00:26:09.886Z,28.80
2023-02-22T00:28:56.369Z,27.17
2023-02-22T00:31:43.412Z,29.80
2023-02-22T00:34:32.332Z,29.52
2023-02-22T00:37:18.342Z,28.55
2023-02-22T00:40:08.419Z,29.80
2023-02-22T00:42:54.283Z,26.50
2023-02-22T00:45:39.636Z,30.33
2023-02-22T00:48:26.208Z,29.90
2023-02-22T00:51:13.467Z,30.58
2023-02-22T00:53:59.338Z,31.20
2023-02-22T00:56:45.487Z,31.10
2023-02-22T00:59:31.169Z,31.88
2023-02-22T01:02:17.438Z,30.27
2023-02-22T01:05:03.181Z,29.02
2023-02-22T01:07:50.716Z,32.33
2023-02-22T01:10:37.892Z,33.10
2023-02-22T01:13:24.516Z,31.15
2023-02-22T01:16:11.247Z,34.30
2023-02-22T01:18:56.911Z,34.83
2023-02-22T01:21:43.296Z,36.05
2023-02-22T01:24:30.224Z,35.75
2023-02-22T01:27:17.362Z,36.17
2023-02-22T01:30:08.604Z,35.88
2023-02-22T01:32:55.013Z,37.13
2023-02-22T01:35:41.541Z,36.13
2023-02-22T01:38:27.640Z,37.00
2023-02-22T01:41:18.386Z,37.38
2023-02-22T01:44:20.038Z,41.45
2023-02-22T01:47:06.513Z,38.55
2023-02-22T01:49:52.423Z,43.67
2023-02-22T01:52:38.263Z,44.15
2023-02-22T01:55:24.952Z,41.00
2023-02-22T01:58:13.207Z,40.53
2023-02-22T02:01:01.202Z,46.70
2023-02-22T02:03:49.197Z,42.08
2023-02-22T02:06:37.172Z,45.67
2023-02-22T02:09:30.245Z,44.85
2023-02-22T02:12:19.608Z,49.28
2023-02-22T02:15:22.442Z,47.70
2023-02-22T02:18:11.735Z,45.20
2023-02-22T02:21:42.072Z,49.00
2023-02-22T02:24:51.584Z,47.33
2023-02-22T02:27:57.220Z,45.92
2023-02-22T02:31:21.760Z,44.92
2023-02-22T02:34:20.351Z,47.53
2023-02-22T02:37:12.311Z,44.08
2023-02-22T02:40:04.904Z,42.67
2023-02-22T02:42:57.982Z,48.47
2023-02-22T02:45:49.625Z,47.30
2023-02-22T02:48:37.224Z,48.78
2023-02-22T02:51:28.520Z,49.13
2023-02-22T02:54:15.249Z,48.90
2023-02-22T02:57:03.459Z,50.58
2023-02-22T02:59:48.988Z,47.33
2023-02-22T03:02:48.855Z,48.38
2023-02-22T03:05:57.056Z,48.80
2023-02-22T03:08:50.445Z,48.13
2023-02-22T03:11:48.413Z,47.83
2023-02-22T03:14:41.353Z,51.28
2023-02-22T03:17:41.346Z,49.72
2023-02-22T03:20:31.835Z,47.17
2023-02-22T03:23:25.386Z,52.67
2023-02-22T03:26:19.668Z,49.60
2023-02-22T03:29:08.251Z,53.15
2023-02-22T03:32:01.351Z,48.30
2023-02-22T03:34:57.004Z,54.33
2023-02-22T03:37:50.545Z,53.03
2023-02-22T03:40:43.509Z,50.10
2023-02-22T03:43:36.746Z,56.42
2023-02-22T03:46:26.290Z,60.10
2023-02-22T03:49:17.909Z,58.38
2023-02-22T03:52:04.888Z,54.13
2023-02-22T03:54:55.450Z,56.40
2023-02-22T03:57:47.066Z,62.03
2023-02-22T04:00:35.552Z,57.20
2023-02-22T04:03:22.370Z,57.25
2023-02-22T04:06:09.031Z,55.17
2023-02-22T04:08:55.029Z,63.97
2023-02-22T04:11:41.061Z,52.95
2023-02-22T04:14:29.302Z,59.20
2023-02-22T04:17:17.783Z,59.92
2023-02-22T04:20:03.914Z,57.92
2023-02-22T04:23:01.171Z,63.03
2023-02-22T04:25:47.766Z,69.07
2023-02-22T04:28:35.794Z,62.45
2023-02-22T04:31:28.802Z,66.50
2023-02-22T04:34:19.105Z,59.35
2023-02-22T04:37:05.189Z,65.05
2023-02-22T04:39:51.782Z,72.30
2023-02-22T04:42:38.406Z,69.03
2023-02-22T04:45:24.946Z,63.28
2023-02-22T04:48:10.759Z,71.40
2023-02-22T04:50:58.112Z,69.63
2023-02-22T04:53:44.068Z,70.50
2023-02-22T04:56:29.721Z,78.43
2023-02-22T04:59:15.511Z,80.85
2023-02-22T05:02:04.161Z,74.00
2023-02-22T05:04:50.554Z,72.10
2023-02-22T05:07:37.846Z,75.53
2023-02-22T05:10:24.782Z,76.55
2023-02-22T05:13:10.758Z,67.13
2023-02-22T05:15:56.525Z,73.75
2023-02-22T05:18:42.728Z,78.35
2023-02-22T05:21:28.375Z,80.72
2023-02-22T05:24:15.558Z,91.10
2023-02-22T05:27:01.435Z,87.93
2023-02-22T05:29:47.295Z,75.75
2023-02-22T05:32:33.022Z,79.50
2023-02-22T05:35:22.581Z,76.07
2023-02-22T05:38:10.257Z,80.95
2023-02-22T05:40:57.438Z,84.90
2023-02-22T05:43:43.016Z,85.93
2023-02-22T05:46:28.778Z,130.95
2023-02-22T05:49:14.675Z,111.30
2023-02-22T05:52:00.581Z,89.50
2023-02-22T05:54:46.014Z,85.28
2023-02-22T05:57:33.664Z,88.20
2023-02-22T06:00:23.219Z,94.53
2023-02-22T06:03:10.978Z,100.63
2023-02-22T06:05:58.900Z,92.43
2023-02-22T06:08:44.781Z,147.48
2023-02-22T06:11:30.678Z,154.25
2023-02-22T06:14:17.869Z,110.15
2023-02-22T06:17:05.350Z,130.73
2023-02-22T06:19:51.097Z,144.15
2023-02-22T06:22:36.983Z,129.77
2023-02-22T06:25:26.641Z,150.60
2023-02-22T06:28:12.652Z,116.68
2023-02-22T06:30:59.961Z,137.32
2023-02-22T06:33:45.863Z,134.68
2023-02-22T06:36:31.800Z,122.47
2023-02-22T06:39:19.006Z,157.00
2023-02-22T06:42:04.986Z,167.45
2023-02-22T06:44:51.792Z,120.63
2023-02-22T06:47:42.285Z,160.95
2023-02-22T06:50:30.287Z,109.23
2023-02-22T06:53:15.824Z,163.98
2023-02-22T06:56:02.180Z,157.77
2023-02-22T06:58:49.409Z,129.68
2023-02-22T07:01:35.721Z,131.30
2023-02-22T07:04:22.697Z,148.23
2023-02-22T07:07:08.609Z,158.20
2023-02-22T07:09:54.308Z,121.80
2023-02-22T07:12:39.965Z,108.05
2023-02-22T07:15:28.187Z,117.35
2023-02-22T07:18:14.164Z,115.32
2023-02-22T07:21:01.261Z,100.55
2023-02-22T07:23:52.221Z,110.18
2023-02-22T07:26:40.570Z,86.72
2023-02-22T07:29:26.569Z,91.72
2023-02-22T07:32:12.241Z,101.55
2023-02-22T07:34:58.623Z,108.55
2023-02-22T07:37:45.821Z,85.93
2023-02-22T07:40:31.973Z,91.22
2023-02-22T07:43:19.765Z,107.43
2023-02-22T07:46:05.817Z,87.47
2023-02-22T07:48:51.426Z,83.03
2023-02-22T07:51:36.989Z,83.85
2023-02-22T07:54:24.354Z,78.30
2023-02-22T07:57:09.997Z,76.55
2023-02-22T07:59:55.873Z,84.60
2023-02-22T08:02:41.540Z,71.53
2023-02-22T08:05:29.180Z,66.68
2023-02-22T08:08:18.712Z,64.95
2023-02-22T08:11:06.772Z,62.58
2023-02-22T08:13:52.518Z,60.05
2023-02-22T08:16:38.317Z,54.53
2023-02-22T08:19:24.060Z,52.95
2023-02-22T08:22:09.924Z,58.22
2023-02-22T08:24:55.821Z,56.65
2023-02-22T08:27:43.783Z,59.67
2023-02-22T08:30:31.153Z,52.90
2023-02-22T08:33:19.691Z,59.60
2023-02-22T08:36:06.359Z,62.38
2023-02-22T08:38:52.080Z,55.95
2023-02-22T08:41:37.885Z,54.33
2023-02-22T08:44:25.321Z,51.10
2023-02-22T08:47:11.290Z,58.67
2023-02-22T08:49:56.762Z,51.28
2023-02-22T08:52:42.141Z,53.10
2023-02-22T08:55:32.101Z,52.53
2023-02-22T08:58:17.796Z,47.85
2023-02-22T09:01:05.182Z,51.97
2023-02-22T09:03:51.752Z,54.55
2023-02-22T09:06:39.988Z,58.38
2023-02-22T09:09:26.014Z,55.17
2023-02-22T09:12:12.136Z,55.53
2023-02-22T09:14:58.179Z,52.00
2023-02-22T09:17:45.560Z,59.40
2023-02-22T09:20:31.670Z,52.90
2023-02-22T09:23:17.449Z,48.78
2023-02-22T09:26:03.699Z,48.10
2023-02-22T09:28:49.523Z,46.90
2023-02-22T09:31:36.631Z,48.08
2023-02-22T09:34:29.552Z,45.58
2023-02-22T09:37:15.729Z,47.55
2023-02-22T09:40:01.378Z,45.92
2023-02-22T09:42:52.580Z,46.72
2023-02-22T09:48:33.829Z,42.97
2023-02-22T09:51:21.756Z,46.50
2023-02-22T09:54:15.164Z,41.03
2023-02-22T09:57:04.446Z,42.55
2023-02-22T10:00:01.044Z,46.22
2023-02-22T10:02:52.528Z,45.85
2023-02-22T10:05:41.926Z,41.83
2023-02-22T10:08:31.627Z,41.97
2023-02-22T10:11:28.468Z,43.67
2023-02-22T10:14:34.768Z,41.20
2023-02-22T10:17:30.448Z,43.97
2023-02-22T10:20:30.847Z,42.35
2023-02-22T10:23:23.941Z,47.63
2023-02-22T10:26:17.202Z,46.88
2023-02-22T10:29:10.706Z,47.95
2023-02-22T10:31:59.963Z,46.88
2023-02-22T10:34:48.546Z,50.25
2023-02-22T10:37:35.426Z,40.75
2023-02-22T10:40:31.952Z,45.75
2023-02-22T10:43:19.902Z,45.10
2023-02-22T10:46:08.104Z,44.40
2023-02-22T10:48:58.266Z,43.50
2023-02-22T10:51:44.128Z,41.53
2023-02-22T10:54:33.598Z,43.72
2023-02-22T10:57:23.026Z,40.95
2023-02-22T11:00:20.123Z,47.08
2023-02-22T11:03:17.164Z,39.10
2023-02-22T11:06:19.932Z,38.85
2023-02-22T11:09:10.333Z,37.38
2023-02-22T11:12:09.511Z,42.45
2023-02-22T11:14:55.448Z,38.30
2023-02-22T11:17:43.489Z,34.45
2023-02-22T11:20:34.883Z,37.83
2023-02-22T11:23:23.547Z,36.90
2023-02-22T11:26:14.287Z,37.42
2023-02-22T11:29:01.599Z,37.92
2023-02-22T11:31:49.389Z,34.83
2023-02-22T11:34:38.972Z,36.65
2023-02-22T11:37:32.390Z,35.22
2023-02-22T11:40:22.282Z,33.60
2023-02-22T11:43:12.201Z,37.80
2023-02-22T11:46:03.584Z,37.97
2023-02-22T11:48:58.301Z,36.17
2023-02-22T11:51:53.661Z,32.63
2023-02-22T11:55:12.491Z,33.67
2023-02-22T11:58:08.459Z,33.25
2023-02-22T12:01:02.285Z,37.67
2023-02-22T12:04:26.280Z,37.05
2023-02-22T12:07:38.380Z,34.35
2023-02-22T12:10:41.361Z,32.05
2023-02-22T12:13:40.081Z,35.00
2023-02-22T12:16:38.018Z,41.45
2023-02-22T12:19:32.543Z,34.13
2023-02-22T12:22:24.875Z,34.65
2023-02-22T12:25:21.577Z,32.90
2023-02-22T12:28:24.634Z,34.20
2023-02-22T12:31:19.082Z,32.55
2023-02-22T12:34:09.850Z,37.70
2023-02-22T12:37:01.576Z,35.75
2023-02-22T12:39:56.509Z,36.40
2023-02-22T12:42:53.713Z,38.10
2023-02-22T12:45:45.171Z,34.58
2023-02-22T12:51:30.029Z,34.88
2023-02-22T12:54:21.304Z,36.10
2023-02-22T12:57:16.984Z,35.83
2023-02-22T13:00:10.468Z,31.15
2023-02-22T13:03:01.124Z,28.00
2023-02-22T13:05:51.523Z,27.27
2023-02-22T13:08:45.826Z,27.13
2023-02-22T13:11:37.586Z,27.08
2023-02-22T13:14:38.786Z,25.27
2023-02-22T13:17:34.586Z,25.58
2023-02-22T13:20:27.323Z,26.60
2023-02-22T13:23:24.139Z,22.70
2023-02-22T13:26:15.323Z,24.80
2023-02-22T13:29:05.710Z,23.50
2023-02-22T13:32:06.422Z,23.77
2023-02-22T13:35:10.849Z,25.27
2023-02-22T13:38:22.027Z,26.83
2023-02-22T13:41:28.774Z,29.08
2023-02-22T13:44:44.462Z,23.83
2023-02-22T13:48:09.313Z,21.92
2023-02-22T13:51:13.809Z,24.63
2023-02-22T13:54:04.542Z,25.48
2023-02-22T13:56:52.180Z,26.73
2023-02-22T13:59:39.424Z,25.25
2023-02-22T14:03:01.128Z,30.30
2023-02-22T14:08:45.888Z,25.23
2023-02-22T14:11:54.141Z,27.92
2023-02-22T14:15:28.744Z,28.95
2023-02-22T14:18:17.295Z,26.05
2023-02-22T14:21:07.538Z,25.17
2023-02-22T14:23:54.273Z,24.60
2023-02-22T14:26:41.366Z,26.17
2023-02-22T14:29:28.054Z,25.23
2023-02-22T14:32:17.564Z,27.23
2023-02-22T14:35:09.602Z,26.63
2023-02-22T14:38:01.932Z,28.80
2023-02-22T14:40:49.492Z,26.17
2023-02-22T14:43:38.020Z,25.75
2023-02-22T14:46:28.163Z,22.90
2023-02-22T14:49:19.710Z,23.90
2023-02-22T14:52:13.238Z,23.45
2023-02-22T14:55:05.852Z,22.13
2023-02-22T14:58:08.613Z,20.85
2023-02-22T15:00:56.824Z,20.30
2023-02-22T15:03:45.005Z,24.42
2023-02-22T15:06:35.268Z,20.92
2023-02-22T15:09:29.680Z,20.45
2023-02-22T15:12:24.492Z,20.48
2023-02-22T15:15:14.156Z,31.38
2023-02-22T15:18:00.171Z,22.15
2023-02-22T15:20:48.408Z,23.60
2023-02-22T15:23:43.395Z,20.95
2023-02-22T15:26:37.250Z,22.08
2023-02-22T15:29:25.016Z,23.02
2023-02-22T15:32:29.274Z,24.20
2023-02-22T15:35:18.759Z,26.02
2023-02-22T15:38:06.669Z,23.60
2023-02-22T15:41:08.345Z,26.40
2023-02-22T15:44:01.790Z,24.33
2023-02-22T15:46:49.672Z,23.88
2023-02-22T15:49:37.916Z,23.10
2023-02-22T15:52:26.496Z,26.48
2023-02-22T15:55:14.603Z,25.42
2023-02-22T15:58:08.844Z,25.70
2023-02-22T16:01:01.756Z,26.65
2023-02-22T16:03:49.610Z,31.55
2023-02-22T16:06:37.749Z,29.55
2023-02-22T16:09:26.132Z,26.90
2023-02-22T16:12:26.294Z,26.48
2023-02-22T16:15:17.593Z,28.45
2023-02-22T16:18:26.312Z,28.60
2023-02-22T16:21:13.971Z,27.27
2023-02-22T16:24:13.794Z,29.80
2023-02-22T16:27:16.523Z,27.33
2023-02-22T16:33:05.561Z,30.48
2023-02-22T16:35:53.918Z,30.48
2023-02-22T16:38:40.258Z,32.30
2023-02-22T16:41:26.137Z,30.10
2023-02-22T16:44:13.110Z,31.50
2023-02-22T16:47:00.545Z,33.58
2023-02-22T16:49:52.751Z,27.67
2023-02-22T16:52:40.184Z,31.30
2023-02-22T16:55:26.915Z,30.35
2023-02-22T16:58:13.738Z,30.20
2023-02-22T17:00:59.372Z,30.75
2023-02-22T17:03:45.893Z,28.67
2023-02-22T17:06:33.331Z,34.03
2023-02-22T17:09:22.231Z,36.20
2023-02-22T17:12:09.773Z,37.55
2023-02-22T17:14:55.780Z,31.70
2023-02-22T17:17:41.446Z,36.17
2023-02-22T17:20:30.140Z,34.53
2023-02-22T17:23:18.059Z,34.58
2023-02-22T17:26:04.225Z,35.10
2023-02-22T17:28:49.868Z,37.55
2023-02-22T17:31:35.959Z,35.85
2023-02-22T17:34:21.800Z,38.67
2023-02-22T17:37:07.790Z,36.05
2023-02-22T17:39:55.841Z,37.13
2023-02-22T17:42:42.334Z,38.88
2023-02-22T17:45:28.872Z,41.95
2023-02-22T17:48:16.438Z,44.55
2023-02-22T17:51:06.784Z,45.78
2023-02-22T17:53:53.322Z,55.13
2023-02-22T17:56:42.491Z,58.05
2023-02-22T17:59:28.324Z,56.85
2023-02-22T18:02:14.022Z,59.08
2023-02-22T18:05:01.134Z,62.25
2023-02-22T18:07:47.121Z,64.78
2023-02-22T18:10:32.961Z,64.60
2023-02-22T18:13:20.698Z,68.85
2023-02-22T18:16:08.058Z,65.15
2023-02-22T18:18:55.579Z,60.80
2023-02-22T18:21:41.242Z,61.25
2023-02-22T18:24:27.445Z,58.97
2023-02-22T18:27:14.793Z,61.20
2023-02-22T18:30:01.933Z,62.60
2023-02-22T18:32:48.000Z,65.70
2023-02-22T18:35:33.916Z,63.42
2023-02-22T18:38:23.424Z,65.82
2023-02-22T18:41:10.952Z,67.15
2023-02-22T18:44:00.612Z,66.60
2023-02-22T18:46:47.841Z,70.38
2023-02-22T18:49:33.682Z,69.72
2023-02-22T18:52:19.697Z,70.40
2023-02-22T18:55:08.701Z,76.00
2023-02-22T18:57:55.724Z,74.53
2023-02-22T19:00:41.563Z,70.00
2023-02-22T19:03:29.851Z,75.18
2023-02-22T19:06:18.024Z,70.78
2023-02-22T19:09:07.857Z,71.57
2023-02-22T19:11:54.550Z,76.50
2023-02-22T19:14:42.276Z,75.10
2023-02-22T19:17:29.477Z,77.80
2023-02-22T19:20:17.084Z,75.65
2023-02-22T19:23:03.212Z,74.60
2023-02-22T19:25:48.709Z,83.80
2023-02-22T19:28:34.382Z,80.47
2023-02-22T19:31:26.228Z,79.13
2023-02-22T19:34:14.947Z,87.75
2023-02-22T19:37:02.255Z,85.20
2023-02-22T19:39:47.933Z,83.75
2023-02-22T19:42:33.613Z,85.00
2023-02-22T19:45:22.095Z,82.95
2023-02-22T19:48:08.559Z,93.45
2023-02-22T19:50:57.793Z,88.75
2023-02-22T19:54:54.740Z,95.85
2023-02-22T19:57:46.516Z,113.90
2023-02-22T20:00:35.520Z,101.68
2023-02-22T20:03:23.527Z,107.05
2023-02-22T20:06:09.900Z,101.95
2023-02-22T20:08:56.969Z,109.60
2023-02-22T20:11:43.320Z,109.68
2023-02-22T20:14:30.918Z,113.55
2023-02-22T20:17:16.666Z,107.93
2023-02-22T20:20:02.525Z,120.07
2023-02-22T20:22:48.713Z,119.90
2023-02-22T20:25:35.446Z,120.75
2023-02-22T20:28:21.417Z,125.72
2023-02-22T20:31:11.293Z,126.60
2023-02-22T20:33:59.231Z,125.70
2023-02-22T20:36:45.187Z,113.97
2023-02-22T20:39:31.589Z,124.00
2023-02-22T20:42:17.796Z,117.65
2023-02-22T20:45:06.051Z,127.40
2023-02-22T20:47:54.546Z,124.20
2023-02-22T20:50:40.518Z,115.28
2023-02-22T20:53:26.461Z,134.90
2023-02-22T20:56:13.654Z,131.77
2023-02-22T20:59:01.419Z,120.05
2023-02-22T21:01:49.403Z,118.97
2023-02-22T21:04:36.490Z,127.43
2023-02-22T21:07:22.503Z,118.95
2023-02-22T21:10:08.659Z,114.50
2023-02-22T21:12:56.918Z,121.78
2023-02-22T21:15:47.135Z,109.07
2023-02-22T21:18:33.162Z,129.00
2023-02-22T21:21:20.538Z,117.78
2023-02-22T21:24:07.283Z,113.40
2023-02-22T21:26:53.086Z,121.05
2023-02-22T21:29:39.072Z,115.88
2023-02-22T21:32:24.933Z,113.00
2023-02-22T21:35:10.925Z,108.05
2023-02-22T21:37:58.363Z,109.70
2023-02-22T21:40:46.160Z,118.00
2023-02-22T21:43:32.454Z,113.65
2023-02-22T21:46:18.649Z,110.18
2023-02-22T21:49:04.637Z,121.00
2023-02-22T21:51:51.822Z,112.38
2023-02-22T21:54:39.432Z,109.63
2023-02-22T21:57:26.144Z,112.50
2023-02-22T22:00:17.440Z,110.05
2023-02-22T22:03:20.205Z,119.57
2023-02-22T22:06:09.709Z,126.40
2023-02-22T22:08:56.364Z,109.00
2023-02-22T22:11:43.284Z,121.70
2023-02-22T22:14:28.811Z,114.20
2023-02-22T22:17:14.627Z,120.35
2023-02-22T22:20:00.095Z,126.53
2023-02-22T22:22:46.278Z,114.63
2023-02-22T22:25:32.867Z,121.57
2023-02-22T22:28:20.694Z,121.40
2023-02-22T22:31:07.330Z,112.35
2023-02-22T22:33:54.517Z,111.40
2023-02-22T22:36:40.303Z,109.78
2023-02-22T22:39:26.819Z,115.45
2023-02-22T22:42:13.392Z,113.18
2023-02-22T22:45:00.548Z,110.38
2023-02-22T22:47:46.807Z,115.15
2023-02-22T22:50:34.028Z,104.57
2023-02-22T22:53:20.007Z,113.10
2023-02-22T22:56:08.609Z,107.47
2023-02-22T22:58:56.128Z,105.25
2023-02-22T23:01:47.080Z,112.40
2023-02-22T23:04:33.098Z,98.82
2023-02-22T23:07:18.791Z,106.88
2023-02-22T23:10:06.444Z,100.38
2023-02-22T23:12:53.744Z,109.40
2023-02-22T23:15:42.870Z,100.38
2023-02-22T23:18:33.917Z,107.22
2023-02-22T23:21:23.721Z,99.57
2023-02-22T23:24:10.813Z,100.80
2023-02-22T23:27:00.268Z,101.82
2023-02-22T23:29:46.577Z,104.90
2023-02-22T23:32:35.001Z,95.05
2023-02-22T23:35:22.014Z,93.82
2023-02-22T23:38:09.075Z,101.13
2023-02-22T23:41:00.339Z,96.88
2023-02-22T23:43:46.306Z,106.45
2023-02-22T23:46:32.904Z,98.22
2023-02-22T23:49:20.342Z,97.43
2023-02-22T23:52:08.476Z,101.13
2023-02-22T23:54:54.237Z,106.10
2023-02-22T23:57:43.138Z,102.32
